Time;durP1;ratioP1;P1;durP2;ratioP2;P2;SDS_P1;SDS_P2;PMS_P1;PMS_P2;Temp;Humidity;BMP_temperature;BMP_pressure;BME280_temperature;BME280_humidity;BME280_pressure;Samples;Min_cycle;Max_cycle;Signal;HPM_P1;HPM_P2
2021/07/07 00:00:44;;;;;;;0.40;0.20;;;;;;;17.59;100.00;100064.75;5073362;28;20470;-52
2021/07/07 00:03:10;;;;;;;0.40;0.20;;;;;;;17.41;100.00;100054.16;5073276;28;20446;-51
2021/07/07 00:05:37;;;;;;;0.40;0.20;;;;;;;17.37;100.00;100052.59;5073505;28;20459;-52
2021/07/07 00:08:04;;;;;;;0.40;0.20;;;;;;;17.42;100.00;100052.34;5073050;28;20424;-51
2021/07/07 00:10:34;;;;;;;0.40;0.20;;;;;;;17.42;100.00;100053.19;5072870;28;20485;-51
2021/07/07 00:13:02;;;;;;;0.40;0.20;;;;;;;17.39;100.00;100058.75;5073301;28;20450;-51
2021/07/07 00:15:32;;;;;;;0.40;0.20;;;;;;;17.33;100.00;100064.50;5064332;28;20450;-51
2021/07/07 00:18:06;;;;;;;0.40;0.20;;;;;;;17.32;100.00;100062.78;5073328;28;20424;-51
2021/07/07 00:20:45;;;;;;;0.40;0.20;;;;;;;17.03;100.00;100063.63;5073230;28;20557;-51
2021/07/07 00:23:12;;;;;;;0.40;0.20;;;;;;;17.03;100.00;100075.25;5073092;28;20474;-51
2021/07/07 00:25:40;;;;;;;0.40;0.20;;;;;;;16.89;100.00;100067.13;5064463;28;20438;-52
2021/07/07 00:28:06;;;;;;;0.40;0.20;;;;;;;16.58;100.00;100060.81;5068005;28;20429;-52
2021/07/07 00:30:33;;;;;;;0.40;0.20;;;;;;;16.81;100.00;100064.88;5072746;28;20505;-51
2021/07/07 00:33:00;;;;;;;0.40;0.20;;;;;;;16.88;100.00;100068.94;5069366;28;20446;-51
2021/07/07 00:35:28;;;;;;;0.40;0.20;;;;;;;16.80;100.00;100064.97;5072674;28;20867;-52
2021/07/07 00:37:55;;;;;;;0.40;0.20;;;;;;;16.71;100.00;100050.25;5072919;28;20499;-51
2021/07/07 00:40:22;;;;;;;0.70;0.60;;;;;;;16.82;100.00;100052.31;5072489;28;20820;-51
2021/07/07 00:42:49;;;;;;;0.50;0.50;;;;;;;16.70;100.00;100035.09;5072500;28;20456;-52
2021/07/07 00:45:16;;;;;;;0.40;0.20;;;;;;;16.53;100.00;100041.41;5071378;28;20519;-51
2021/07/07 00:47:47;;;;;;;0.40;0.20;;;;;;;16.65;100.00;100055.94;5072205;28;20434;-51
2021/07/07 00:50:16;;;;;;;0.40;0.20;;;;;;;16.64;100.00;100056.91;5071280;28;20913;-51
2021/07/07 00:52:44;;;;;;;0.40;0.20;;;;;;;16.67;100.00;100063.91;5072314;28;20458;-51
2021/07/07 00:55:14;;;;;;;0.40;0.20;;;;;;;16.69;100.00;100064.72;5072048;28;20992;-51
2021/07/07 00:57:43;;;;;;;0.40;0.20;;;;;;;16.79;100.00;100068.59;5072103;28;20966;-51
2021/07/07 01:00:14;;;;;;;0.40;0.20;;;;;;;16.82;100.00;100055.88;5071933;28;20421;-52
2021/07/07 01:02:43;;;;;;;0.40;0.20;;;;;;;16.74;100.00;100052.78;5072036;28;20461;-51
2021/07/07 01:05:11;;;;;;;0.40;0.20;;;;;;;16.76;100.00;100050.00;5072612;28;20519;-51
2021/07/07 01:07:38;;;;;;;0.40;0.20;;;;;;;16.81;100.00;100055.97;5071896;28;20868;-53
2021/07/07 01:10:07;;;;;;;0.40;0.20;;;;;;;16.78;100.00;100051.63;5072154;28;20503;-53
2021/07/07 01:12:35;;;;;;;0.40;0.20;;;;;;;16.67;100.00;100062.13;5072078;28;20454;-52
2021/07/07 01:15:04;;;;;;;0.40;0.20;;;;;;;16.57;100.00;100056.38;5063926;28;20417;-52
2021/07/07 01:17:32;;;;;;;0.40;0.20;;;;;;;16.57;100.00;100039.41;5072413;28;20449;-52
2021/07/07 01:20:00;;;;;;;0.40;0.20;;;;;;;16.48;100.00;100048.00;5071857;28;20457;-52
2021/07/07 01:22:30;;;;;;;0.40;0.20;;;;;;;16.38;100.00;100070.94;5071620;28;20473;-52
2021/07/07 01:24:57;;;;;;;0.40;0.20;;;;;;;16.47;100.00;100065.06;5069374;28;20885;-52
2021/07/07 01:27:26;;;;;;;0.40;0.20;;;;;;;16.51;100.00;100069.28;5061418;28;20453;-52
2021/07/07 01:29:53;;;;;;;0.40;0.20;;;;;;;16.49;100.00;100065.84;5071816;28;20449;-52
2021/07/07 01:32:20;;;;;;;0.40;0.20;;;;;;;16.53;100.00;100078.97;5068224;28;20478;-51
2021/07/07 01:34:47;;;;;;;0.40;0.20;;;;;;;16.65;100.00;100081.94;5071493;28;20449;-52
2021/07/07 01:37:14;;;;;;;0.40;0.20;;;;;;;16.77;100.00;100087.50;5071841;28;20449;-51
2021/07/07 01:39:41;;;;;;;0.40;0.20;;;;;;;16.86;100.00;100078.06;5071462;28;20549;-52
2021/07/07 01:42:08;;;;;;;0.40;0.20;;;;;;;16.80;100.00;100049.72;5071504;28;20488;-51
2021/07/07 01:44:34;;;;;;;0.40;0.20;;;;;;;16.83;100.00;100043.31;5070432;28;20938;-51
2021/07/07 01:47:03;;;;;;;0.40;0.20;;;;;;;16.74;100.00;100043.88;5071899;28;20504;-51
2021/07/07 01:49:30;;;;;;;0.40;0.20;;;;;;;16.79;100.00;100049.81;5071558;28;20822;-52
2021/07/07 01:51:57;;;;;;;0.40;0.20;;;;;;;16.82;100.00;100063.06;5072005;28;20473;-52
2021/07/07 01:54:23;;;;;;;0.40;0.20;;;;;;;16.80;100.00;100065.84;5071645;28;20442;-52
2021/07/07 01:56:50;;;;;;;0.40;0.20;;;;;;;16.81;100.00;100064.88;5071485;28;20425;-52
2021/07/07 01:59:16;;;;;;;0.40;0.20;;;;;;;16.79;100.00;100072.16;5070935;28;20457;-52
2021/07/07 02:01:43;;;;;;;0.40;0.20;;;;;;;16.79;100.00;100069.47;5075804;28;21044;-52
2021/07/07 02:04:10;;;;;;;0.40;0.20;;;;;;;16.66;100.00;100068.41;5077967;28;20489;-51
2021/07/07 02:06:37;;;;;;;0.40;0.20;;;;;;;16.71;100.00;100069.03;5078468;28;20487;-51
2021/07/07 02:09:07;;;;;;;0.40;0.30;;;;;;;16.70;100.00;100066.44;5078154;28;20510;-52
2021/07/07 02:11:35;;;;;;;0.40;0.20;;;;;;;16.63;100.00;100070.41;5077853;28;20538;-52
2021/07/07 02:14:03;;;;;;;0.40;0.20;;;;;;;16.59;100.00;100050.94;5077891;28;20446;-51
2021/07/07 02:16:30;;;;;;;0.50;0.50;;;;;;;16.63;100.00;100044.44;5070964;28;20428;-51
2021/07/07 02:18:57;;;;;;;0.40;0.20;;;;;;;16.62;100.00;100045.41;5077641;28;20445;-52
2021/07/07 02:21:23;;;;;;;0.40;0.20;;;;;;;16.57;100.00;100060.88;5077426;28;20523;-52
2021/07/07 02:23:50;;;;;;;0.40;0.20;;;;;;;16.60;100.00;100084.88;5078068;28;20442;-51
2021/07/07 02:26:17;;;;;;;0.40;0.20;;;;;;;16.50;100.00;100095.25;5064421;28;20454;-52
2021/07/07 02:28:44;;;;;;;0.40;0.20;;;;;;;16.46;100.00;100087.47;5077877;28;20420;-51
2021/07/07 02:31:10;;;;;;;0.40;0.20;;;;;;;16.49;100.00;100082.78;5073529;28;20868;-51
2021/07/07 02:33:37;;;;;;;0.40;0.20;;;;;;;16.58;100.00;100084.06;5077529;28;20457;-51
2021/07/07 02:36:07;;;;;;;0.40;0.20;;;;;;;16.48;100.00;100086.44;5077870;28;20469;-51
2021/07/07 02:38:34;;;;;;;0.40;0.20;;;;;;;16.43;100.00;100077.75;5077510;28;20511;-52
2021/07/07 02:41:01;;;;;;;0.40;0.20;;;;;;;16.50;100.00;100076.47;5077475;28;20469;-51
2021/07/07 02:43:28;;;;;;;1.73;0.93;;;;;;;16.42;100.00;100085.91;5077432;28;20527;-52
2021/07/07 02:45:54;;;;;;;0.40;0.20;;;;;;;16.41;100.00;100086.84;5076082;28;20460;-52
2021/07/07 02:48:22;;;;;;;0.40;0.20;;;;;;;16.61;100.00;100108.09;5077853;28;20449;-51
2021/07/07 02:50:49;;;;;;;0.40;0.20;;;;;;;16.64;100.00;100110.59;5077276;28;21017;-52
2021/07/07 02:53:17;;;;;;;0.40;0.20;;;;;;;16.53;100.00;100111.19;5077148;28;20507;-52
2021/07/07 02:55:45;;;;;;;0.40;0.20;;;;;;;16.35;100.00;100100.63;5077933;28;20812;-51
2021/07/07 02:58:12;;;;;;;0.40;0.20;;;;;;;16.09;100.00;100107.41;5077472;28;20449;-52
2021/07/07 03:00:40;;;;;;;0.40;0.20;;;;;;;16.00;100.00;100122.16;5077625;28;20469;-52
2021/07/07 03:03:09;;;;;;;0.40;0.20;;;;;;;16.05;100.00;100121.94;5077661;28;20460;-51
2021/07/07 03:05:39;;;;;;;0.40;0.20;;;;;;;15.96;100.00;100117.91;5077595;28;20917;-51
2021/07/07 03:08:06;;;;;;;0.40;0.20;;;;;;;15.93;100.00;100104.69;5077395;28;20445;-51
2021/07/07 03:10:33;;;;;;;0.40;0.20;;;;;;;15.75;100.00;100098.47;5077120;28;20493;-52
2021/07/07 03:13:00;;;;;;;0.40;0.20;;;;;;;15.85;100.00;100107.75;5074664;28;20461;-51
2021/07/07 03:15:27;;;;;;;0.40;0.20;;;;;;;15.96;100.00;100115.25;5065775;28;20432;-51
2021/07/07 03:17:54;;;;;;;0.40;0.20;;;;;;;15.84;100.00;100110.53;5074035;28;20846;-51
2021/07/07 03:20:21;;;;;;;0.40;0.20;;;;;;;15.92;100.00;100124.41;5074638;28;20931;-51
2021/07/07 03:22:49;;;;;;;0.40;0.20;;;;;;;15.94;100.00;100127.88;5073990;28;20968;-51
2021/07/07 03:25:16;;;;;;;0.40;0.20;;;;;;;15.88;100.00;100130.84;5068529;28;20487;-51
2021/07/07 03:27:42;;;;;;;0.40;0.20;;;;;;;15.88;100.00;100126.34;5065948;28;20507;-51
2021/07/07 03:30:10;;;;;;;0.40;0.20;;;;;;;15.81;100.00;100124.97;5073899;28;20449;-53
2021/07/07 03:32:37;;;;;;;0.40;0.20;;;;;;;15.76;100.00;100119.00;5070262;28;20536;-51
2021/07/07 03:35:04;;;;;;;0.40;0.20;;;;;;;15.91;100.00;100130.72;5073752;28;20421;-51
2021/07/07 03:37:31;;;;;;;0.40;0.20;;;;;;;16.06;100.00;100140.63;5073280;28;20503;-52
2021/07/07 03:39:58;;;;;;;0.40;0.20;;;;;;;16.17;100.00;100154.31;5073530;28;20452;-52
2021/07/07 03:42:24;;;;;;;0.40;0.20;;;;;;;16.10;100.00;100139.50;5073840;28;20888;-51
2021/07/07 03:44:51;;;;;;;0.40;0.20;;;;;;;16.06;100.00;100123.66;5072870;28;20551;-52
2021/07/07 03:47:18;;;;;;;0.40;0.20;;;;;;;15.98;100.00;100126.75;5073681;28;20496;-51
2021/07/07 03:49:44;;;;;;;0.40;0.30;;;;;;;16.11;100.00;100106.38;5073299;28;20446;-51
2021/07/07 03:52:11;;;;;;;0.40;0.20;;;;;;;16.21;100.00;100128.19;5073043;28;20469;-52
2021/07/07 03:54:38;;;;;;;0.40;0.20;;;;;;;16.15;100.00;100137.41;5073555;28;20445;-52
2021/07/07 03:57:05;;;;;;;0.40;0.20;;;;;;;16.09;100.00;100134.22;5073544;28;20542;-52
2021/07/07 03:59:31;;;;;;;0.40;0.20;;;;;;;16.07;100.00;100130.75;5073427;28;20496;-51
2021/07/07 04:01:58;;;;;;;0.40;0.20;;;;;;;16.05;100.00;100132.66;5073256;28;20843;-52
2021/07/07 04:04:25;;;;;;;0.40;0.20;;;;;;;16.20;100.00;100138.06;5073234;28;20420;-51
2021/07/07 04:06:56;;;;;;;0.40;0.20;;;;;;;16.04;100.00;100142.53;5073772;28;20529;-51
2021/07/07 04:09:23;;;;;;;0.40;0.30;;;;;;;16.10;100.00;100152.91;5073816;28;20446;-51
2021/07/07 04:11:50;;;;;;;0.40;0.20;;;;;;;15.81;100.00;100149.09;5072919;28;20535;-51
2021/07/07 04:14:22;;;;;;;0.50;0.40;;;;;;;15.82;100.00;100147.28;5071074;28;20516;-51
2021/07/07 04:16:51;;;;;;;0.40;0.20;;;;;;;15.80;100.00;100146.50;5068212;28;20448;-51
2021/07/07 04:19:19;;;;;;;0.40;0.20;;;;;;;15.84;100.00;100154.28;5073015;28;20460;-51
2021/07/07 04:21:46;;;;;;;0.40;0.20;;;;;;;15.84;100.00;100159.66;5072680;28;20843;-52
2021/07/07 04:24:14;;;;;;;0.40;0.20;;;;;;;15.82;100.00;100150.81;5072750;28;20446;-51
2021/07/07 04:26:41;;;;;;;0.40;0.20;;;;;;;16.00;100.00;100170.41;5072648;28;20939;-49
2021/07/07 04:29:08;;;;;;;0.40;0.20;;;;;;;16.06;100.00;100183.53;5072680;28;20457;-49
2021/07/07 04:31:35;;;;;;;0.40;0.20;;;;;;;16.00;100.00;100187.38;5069364;28;20478;-48
2021/07/07 04:34:03;;;;;;;0.40;0.20;;;;;;;15.81;100.00;100185.75;5073154;28;20446;-49
2021/07/07 04:36:30;;;;;;;0.40;0.20;;;;;;;15.87;100.00;100183.59;5072387;28;20955;-49
2021/07/07 04:38:57;;;;;;;0.40;0.20;;;;;;;15.92;100.00;100188.75;5072270;28;20951;-51
2021/07/07 04:41:24;;;;;;;0.40;0.20;;;;;;;15.87;100.00;100193.47;5071715;28;20979;-51
2021/07/07 04:43:51;;;;;;;0.40;0.20;;;;;;;15.91;100.00;100189.69;5073297;28;20479;-52
2021/07/07 04:46:17;;;;;;;0.40;0.20;;;;;;;15.98;100.00;100197.31;5072085;28;20539;-52
2021/07/07 04:48:45;;;;;;;0.40;0.20;;;;;;;15.97;100.00;100189.38;5073256;28;20456;-51
2021/07/07 04:51:12;;;;;;;0.40;0.20;;;;;;;15.97;100.00;100189.38;5072898;28;20523;-51
2021/07/07 04:53:42;;;;;;;0.40;0.20;;;;;;;15.96;100.00;100182.25;5072741;28;20448;-51
2021/07/07 04:56:09;;;;;;;0.40;0.20;;;;;;;16.11;100.00;100177.91;5072596;28;20458;-51
2021/07/07 04:58:37;;;;;;;0.40;0.20;;;;;;;16.09;100.00;100179.81;5073337;28;20425;-51
2021/07/07 05:01:05;;;;;;;0.40;0.20;;;;;;;16.04;100.00;100179.19;5072496;28;20498;-52
2021/07/07 05:03:32;;;;;;;1.50;1.50;;;;;;;16.07;100.00;100197.78;5059773;28;20455;-51
2021/07/07 05:05:58;;;;;;;0.40;0.20;;;;;;;16.23;100.00;100199.56;5072258;28;21052;-51
2021/07/07 05:08:25;;;;;;;0.40;0.20;;;;;;;16.32;100.00;100205.41;5072565;28;20429;-52
2021/07/07 05:10:52;;;;;;;0.40;0.20;;;;;;;16.27;100.00;100209.19;5072421;28;20448;-52
2021/07/07 05:13:20;;;;;;;0.40;0.20;;;;;;;16.39;100.00;100217.53;5072792;28;20425;-52
2021/07/07 05:15:47;;;;;;;0.40;0.20;;;;;;;16.42;100.00;100225.41;5065861;28;20947;-51
2021/07/07 05:18:15;;;;;;;0.40;0.20;;;;;;;16.48;100.00;100227.78;5072401;28;21000;-51
2021/07/07 05:20:42;;;;;;;0.40;0.20;;;;;;;16.62;100.00;100221.66;5072388;28;20449;-51
2021/07/07 05:23:08;;;;;;;0.40;0.20;;;;;;;16.58;100.00;100232.56;5072355;28;20446;-52
2021/07/07 05:25:36;;;;;;;0.40;0.20;;;;;;;16.59;100.00;100233.44;5066446;28;20485;-49
2021/07/07 05:28:04;;;;;;;0.40;0.20;;;;;;;16.48;100.00;100235.84;5068766;28;20935;-49
2021/07/07 05:30:32;;;;;;;0.40;0.20;;;;;;;16.62;100.00;100222.53;5072240;28;20474;-48
2021/07/07 05:33:00;;;;;;;0.40;0.20;;;;;;;16.63;100.00;100223.41;5068872;28;20432;-49
2021/07/07 05:35:27;;;;;;;0.40;0.20;;;;;;;16.73;100.00;100230.03;5071725;28;20442;-52
2021/07/07 05:37:54;;;;;;;0.40;0.20;;;;;;;16.73;100.00;100227.34;5072144;28;20503;-51
2021/07/07 05:40:21;;;;;;;0.40;0.20;;;;;;;16.75;100.00;100229.00;5071850;28;20429;-51
2021/07/07 05:42:52;;;;;;;0.40;0.20;;;;;;;17.31;100.00;100229.44;5071942;28;20850;-52
2021/07/07 05:45:25;;;;;;;0.40;0.20;;;;;;;17.30;100.00;100230.41;5071693;28;20464;-51
2021/07/07 05:47:53;;;;;;;0.40;0.20;;;;;;;17.68;100.00;100218.34;5072133;28;20454;-51
2021/07/07 05:50:22;;;;;;;0.60;0.53;;;;;;;17.80;100.00;100226.59;5072272;28;20450;-51
2021/07/07 05:52:49;;;;;;;0.40;0.20;;;;;;;18.02;100.00;100229.75;5071908;28;20424;-51
2021/07/07 05:55:16;;;;;;;0.40;0.20;;;;;;;18.30;100.00;100229.78;5071949;28;20453;-52
2021/07/07 05:57:43;;;;;;;0.40;0.20;;;;;;;18.56;99.92;100230.00;5071634;28;20951;-51
2021/07/07 06:00:16;;;;;;;0.40;0.20;;;;;;;18.42;100.00;100232.69;5071797;28;20499;-52
2021/07/07 06:02:44;;;;;;;0.40;0.20;;;;;;;18.86;98.03;100230.78;5058966;28;20457;-51
2021/07/07 06:05:11;;;;;;;0.40;0.20;;;;;;;19.34;96.52;100236.69;5071712;28;20482;-51
2021/07/07 06:07:39;;;;;;;0.40;0.20;;;;;;;19.60;94.40;100240.38;5071321;28;20474;-52
2021/07/07 06:10:11;;;;;;;0.40;0.27;;;;;;;19.95;92.46;100238.00;5071757;28;20435;-51
2021/07/07 06:12:38;;;;;;;0.40;0.20;;;;;;;20.12;90.84;100232.28;5072086;28;20442;-52
2021/07/07 06:15:06;;;;;;;0.40;0.20;;;;;;;20.35;89.41;100241.50;5065017;28;20471;-51
2021/07/07 06:17:33;;;;;;;0.40;0.30;;;;;;;20.30;90.31;100240.09;5071860;28;20971;-51
2021/07/07 06:20:00;;;;;;;0.40;0.30;;;;;;;20.52;90.10;100250.28;5071484;28;20425;-52
2021/07/07 06:22:26;;;;;;;0.40;0.20;;;;;;;20.79;89.03;100242.91;5071638;28;20470;-52
2021/07/07 06:24:53;;;;;;;0.40;0.20;;;;;;;20.65;87.83;100257.41;5069493;28;20447;-52
2021/07/07 06:27:20;;;;;;;0.40;0.20;;;;;;;20.99;88.77;100250.47;5060797;28;20424;-52
2021/07/07 06:29:46;;;;;;;0.40;0.20;;;;;;;21.12;87.07;100252.28;5071343;28;20450;-51
2021/07/07 06:32:14;;;;;;;0.40;0.20;;;;;;;21.34;86.36;100254.28;5068293;28;20456;-52
2021/07/07 06:34:41;;;;;;;0.40;0.30;;;;;;;20.93;87.40;100253.59;5071739;28;20450;-52
2021/07/07 06:37:09;;;;;;;0.40;0.20;;;;;;;21.05;88.07;100259.09;5071667;28;20450;-52
2021/07/07 06:39:36;;;;;;;0.40;0.30;;;;;;;21.46;84.74;100258.81;5071436;28;20975;-52
2021/07/07 06:42:04;;;;;;;0.40;0.20;;;;;;;21.42;86.10;100260.00;5071674;28;20444;-51
2021/07/07 06:44:31;;;;;;;0.40;0.23;;;;;;;21.69;85.50;100268.78;5070657;28;20498;-52
2021/07/07 06:46:58;;;;;;;0.40;0.20;;;;;;;21.71;82.90;100271.38;5071455;28;20851;-52
2021/07/07 06:49:25;;;;;;;0.40;0.30;;;;;;;21.92;83.84;100267.00;5074633;28;20420;-52
2021/07/07 06:51:52;;;;;;;0.40;0.20;;;;;;;21.51;83.11;100271.00;5075023;28;20472;-52
2021/07/07 06:54:19;;;;;;;0.40;0.30;;;;;;;21.68;84.15;100272.47;5075144;28;20449;-51
2021/07/07 06:56:45;;;;;;;0.40;0.30;;;;;;;22.10;83.27;100268.38;5075110;28;20413;-52
2021/07/07 06:59:12;;;;;;;0.40;0.20;;;;;;;21.46;83.65;100270.47;5075248;28;20482;-52
2021/07/07 07:01:39;;;;;;;0.40;0.30;;;;;;;21.88;84.44;100262.81;5074819;28;20462;-52
2021/07/07 07:04:05;;;;;;;0.40;0.30;;;;;;;21.74;83.90;100268.41;5075373;28;20460;-52
2021/07/07 07:06:32;;;;;;;0.40;0.20;;;;;;;21.71;84.62;100265.94;5074952;28;20460;-52
2021/07/07 07:08:59;;;;;;;0.40;0.20;;;;;;;21.51;84.54;100270.13;5075349;28;20485;-52
2021/07/07 07:11:27;;;;;;;0.40;0.20;;;;;;;21.33;84.51;100271.50;5074821;28;20440;-52
2021/07/07 07:13:54;;;;;;;0.40;0.30;;;;;;;21.78;83.61;100262.66;5074501;28;20428;-52
2021/07/07 07:16:21;;;;;;;0.40;0.30;;;;;;;21.86;82.82;100273.78;5067139;28;20785;-51
2021/07/07 07:18:48;;;;;;;0.40;0.20;;;;;;;21.77;83.33;100276.31;5075424;28;20499;-52
2021/07/07 07:21:17;;;;;;;0.40;0.20;;;;;;;21.65;82.03;100277.22;5074648;28;20947;-51
2021/07/07 07:23:43;;;;;;;0.40;0.20;;;;;;;21.78;84.01;100269.91;5074885;28;20424;-51
2021/07/07 07:26:13;;;;;;;0.40;0.20;;;;;;;22.14;81.79;100269.84;5062009;28;20578;-52
2021/07/07 07:28:41;;;;;;;0.40;0.30;;;;;;;22.51;81.58;100285.97;5074555;28;20420;-52
2021/07/07 07:31:07;;;;;;;0.40;0.30;;;;;;;21.76;82.62;100270.03;5071071;28;20512;-52
2021/07/07 07:33:35;;;;;;;0.40;0.20;;;;;;;21.95;84.08;100276.78;5075082;28;20424;-52
2021/07/07 07:36:22;;;;;;;0.40;0.20;;;;;;;21.62;84.20;100275.63;5074176;28;20490;-52
2021/07/07 07:38:58;;;;;;;0.40;0.30;;;;;;;21.77;84.03;100266.34;5074711;28;20446;-52
2021/07/07 07:41:38;;;;;;;0.40;0.20;;;;;;;21.66;84.69;100270.84;5074452;28;20486;-52
2021/07/07 07:44:08;;;;;;;0.40;0.20;;;;;;;21.53;85.17;100274.47;5074603;28;20445;-51
2021/07/07 07:46:35;;;;;;;0.40;0.30;;;;;;;22.17;84.88;100261.47;5074197;28;20466;-51
2021/07/07 07:49:04;;;;;;;0.40;0.20;;;;;;;22.00;82.31;100261.91;5074299;28;20436;-52
2021/07/07 07:51:32;;;;;;;0.40;0.30;;;;;;;21.92;83.50;100266.16;5073736;28;20465;-52
2021/07/07 07:53:59;;;;;;;0.40;0.20;;;;;;;22.69;80.90;100267.38;5073800;28;20425;-52
2021/07/07 07:56:26;;;;;;;0.40;0.30;;;;;;;22.34;81.78;100259.31;5074018;28;20997;-53
2021/07/07 07:58:53;;;;;;;0.40;0.20;;;;;;;22.30;82.97;100268.66;5073601;28;20466;-52
2021/07/07 08:01:20;;;;;;;0.40;0.20;;;;;;;22.24;83.06;100258.31;5072750;28;20524;-52
2021/07/07 08:03:47;;;;;;;0.40;0.20;;;;;;;22.12;83.27;100255.56;5073663;28;20420;-52
2021/07/07 08:06:14;;;;;;;0.50;0.40;;;;;;;22.20;80.80;100262.22;5073753;28;20489;-52
2021/07/07 08:08:40;;;;;;;0.40;0.30;;;;;;;22.38;82.35;100261.69;5073730;28;20421;-52
2021/07/07 08:11:07;;;;;;;0.40;0.20;;;;;;;21.74;81.91;100258.47;5073878;28;20945;-52
2021/07/07 08:13:34;;;;;;;0.40;0.23;;;;;;;22.40;81.02;100253.44;5071944;28;20449;-52
2021/07/07 08:16:01;;;;;;;0.40;0.20;;;;;;;22.48;82.01;100259.13;5063374;28;20416;-52
2021/07/07 08:18:28;;;;;;;0.40;0.23;;;;;;;22.70;80.68;100258.28;5073944;28;20478;-52
2021/07/07 08:20:55;;;;;;;0.40;0.20;;;;;;;22.55;81.96;100259.50;5073702;28;20466;-52
2021/07/07 08:23:23;;;;;;;0.40;0.20;;;;;;;22.50;81.55;100259.00;5059798;28;20866;-52
2021/07/07 08:25:50;;;;;;;0.40;0.20;;;;;;;22.40;79.89;100261.56;5073380;28;20626;-52
2021/07/07 08:28:16;;;;;;;0.40;0.20;;;;;;;22.58;79.74;100262.81;5073236;28;20495;-52
2021/07/07 08:30:43;;;;;;;0.40;0.30;;;;;;;23.22;79.26;100259.53;5073348;28;20914;-53
2021/07/07 08:33:10;;;;;;;0.40;0.20;;;;;;;23.45;78.22;100263.94;5053891;28;20500;-52
2021/07/07 08:35:38;;;;;;;0.40;0.23;;;;;;;23.98;75.86;100268.59;5053435;28;20508;-52
2021/07/07 08:38:05;;;;;;;0.40;0.20;;;;;;;23.36;78.68;100261.97;5053219;28;20460;-52
2021/07/07 08:40:32;;;;;;;0.50;0.30;;;;;;;24.27;77.21;100272.41;5053219;28;20478;-52
2021/07/07 08:42:58;;;;;;;0.40;0.23;;;;;;;23.15;76.55;100278.13;5053000;28;20932;-52
2021/07/07 08:45:25;;;;;;;0.40;0.30;;;;;;;22.81;79.36;100277.25;5053481;28;20458;-52
2021/07/07 08:47:52;;;;;;;0.40;0.30;;;;;;;23.31;78.25;100281.34;5053208;28;20485;-51
2021/07/07 08:50:25;;;;;;;0.40;0.30;;;;;;;23.12;78.98;100281.09;5052784;28;21001;-52
2021/07/07 08:52:53;;;;;;;0.40;0.30;;;;;;;24.20;76.58;100280.22;5052956;28;20479;-52
2021/07/07 08:55:21;;;;;;;0.40;0.30;;;;;;;23.74;76.04;100291.41;5053315;28;20526;-52
2021/07/07 08:57:49;;;;;;;0.50;0.30;;;;;;;23.50;77.00;100286.13;5052657;28;20960;-52
2021/07/07 09:00:22;;;;;;;0.47;0.33;;;;;;;23.83;77.19;100290.63;5052700;28;20457;-52
2021/07/07 09:02:54;;;;;;;0.40;0.30;;;;;;;23.21;77.06;100296.66;5052428;28;20455;-52
2021/07/07 09:05:23;;;;;;;0.50;0.50;;;;;;;23.60;77.39;100291.69;5053627;28;20417;-52
2021/07/07 09:07:50;;;;;;;0.40;0.23;;;;;;;23.19;76.76;100287.78;5072321;28;21006;-52
2021/07/07 09:10:28;;;;;;;0.40;0.30;;;;;;;23.53;77.30;100295.84;5071586;28;20508;-52
2021/07/07 09:12:55;;;;;;;1.00;1.00;;;;;;;23.46;75.78;100286.50;5072377;28;20495;-52
2021/07/07 09:15:23;;;;;;;0.40;0.20;;;;;;;23.81;75.19;100289.88;5064009;28;20935;-52
2021/07/07 09:17:51;;;;;;;0.40;0.30;;;;;;;23.42;75.46;100294.00;5072825;28;20480;-52
2021/07/07 09:20:38;;;;;;;0.50;0.20;;;;;;;23.91;75.63;100296.28;5071921;28;20446;-52
2021/07/07 09:23:16;;;;;;;0.40;0.20;;;;;;;24.23;75.08;100298.97;5072277;28;20466;-52
2021/07/07 09:25:51;;;;;;;0.40;0.20;;;;;;;24.11;73.45;100294.56;5063218;28;20913;-52
2021/07/07 09:28:26;;;;;;;0.40;0.30;;;;;;;24.43;71.74;100296.44;5069188;28;20450;-52
2021/07/07 09:30:54;;;;;;;0.50;0.30;;;;;;;24.36;73.78;100298.81;5071048;28;20543;-52
2021/07/07 09:33:22;;;;;;;0.43;0.30;;;;;;;24.53;71.84;100297.34;5070817;28;20524;-52
2021/07/07 09:36:21;;;;;;;0.40;0.30;;;;;;;25.13;72.21;100306.59;5070940;28;20446;-52
2021/07/07 09:38:50;;;;;;;0.40;0.30;;;;;;;25.17;71.73;100307.19;5071805;28;20438;-52
2021/07/07 09:41:18;;;;;;;0.50;0.30;;;;;;;24.95;72.62;100300.91;5071767;28;20470;-52
2021/07/07 09:43:49;;;;;;;0.50;0.37;;;;;;;24.48;71.88;100300.47;5071974;28;20425;-52
2021/07/07 09:46:18;;;;;;;0.40;0.20;;;;;;;24.72;70.45;100305.66;5070016;28;20550;-52
2021/07/07 09:48:46;;;;;;;0.40;0.20;;;;;;;24.43;75.52;100300.03;5071771;28;20474;-52
2021/07/07 09:51:13;;;;;;;0.40;0.30;;;;;;;24.59;73.54;100306.84;5071782;28;20478;-52
2021/07/07 09:53:40;;;;;;;0.47;0.27;;;;;;;24.38;73.43;100302.25;5071816;28;20445;-52
2021/07/07 09:56:06;;;;;;;0.50;0.30;;;;;;;24.45;71.60;100298.03;5071855;28;20996;-52
2021/07/07 09:58:33;;;;;;;0.50;0.30;;;;;;;25.57;70.02;100299.00;5071407;28;21016;-52
2021/07/07 10:01:00;;;;;;;0.50;0.30;;;;;;;25.10;68.42;100307.75;5071390;28;20504;-52
2021/07/07 10:03:27;;;;;;;0.50;0.20;;;;;;;24.66;69.14;100303.44;5072121;28;20492;-52
2021/07/07 10:05:54;;;;;;;0.50;0.30;;;;;;;23.75;71.81;100295.84;5071808;28;20495;-52
2021/07/07 10:08:20;;;;;;;0.50;0.20;;;;;;;24.04;72.18;100303.41;5071464;28;20420;-52
2021/07/07 10:10:48;;;;;;;0.50;0.30;;;;;;;24.61;71.20;100302.13;5071885;28;20472;-52
2021/07/07 10:13:15;;;;;;;0.40;0.20;;;;;;;25.19;71.53;100308.78;5071757;28;20955;-52
2021/07/07 10:15:42;;;;;;;0.40;0.20;;;;;;;25.52;72.59;100313.06;5064266;28;20449;-52
2021/07/07 10:18:09;;;;;;;0.40;0.20;;;;;;;25.29;68.05;100312.41;5072066;28;20446;-52
2021/07/07 10:20:37;;;;;;;0.43;0.23;;;;;;;25.42;68.36;100317.59;5051386;28;20533;-52
2021/07/07 10:23:07;;;;;;;0.53;0.40;;;;;;;25.52;67.71;100310.34;5054815;28;20450;-52
2021/07/07 10:25:36;;;;;;;0.40;0.30;;;;;;;25.82;66.73;100309.44;5068046;28;20569;-52
2021/07/07 10:28:08;;;;;;;0.40;0.30;;;;;;;25.52;67.41;100306.75;5056958;28;20543;-52
2021/07/07 10:30:49;;;;;;;0.50;0.30;;;;;;;25.56;63.70;100300.03;5076433;28;21040;-52
2021/07/07 10:33:16;;;;;;;0.40;0.20;;;;;;;25.82;64.29;100308.56;5073746;28;20450;-51
2021/07/07 10:35:43;;;;;;;0.50;0.30;;;;;;;25.94;64.57;100302.00;5075427;28;20935;-51
2021/07/07 10:38:11;;;;;;;0.50;0.30;;;;;;;26.26;64.01;100299.81;5075320;28;20457;-51
2021/07/07 10:40:40;;;;;;;0.50;0.30;;;;;;;26.10;63.64;100288.66;5075087;28;20557;-52
2021/07/07 10:43:07;;;;;;;0.70;0.70;;;;;;;26.34;63.34;100293.66;5076136;28;20499;-52
2021/07/07 10:45:40;;;;;;;0.50;0.30;;;;;;;25.64;63.73;100283.84;5075264;28;20806;-52
2021/07/07 10:48:26;;;;;;;0.43;0.20;;;;;;;25.66;61.47;100285.44;5074749;28;20485;-52
2021/07/07 10:50:58;;;;;;;0.50;0.30;;;;;;;25.00;63.17;100282.34;5075220;28;20473;-50
2021/07/07 10:53:29;;;;;;;0.50;0.30;;;;;;;25.39;63.70;100279.78;5075109;28;20445;-50
2021/07/07 10:55:58;;;;;;;0.50;0.30;;;;;;;25.89;62.21;100272.44;5076060;28;20519;-53
2021/07/07 10:58:37;;;;;;;0.40;0.30;;;;;;;25.63;62.49;100272.09;5075855;28;20452;-52
2021/07/07 11:01:24;;;;;;;0.50;0.30;;;;;;;25.20;65.41;100263.38;5075331;28;21060;-51
2021/07/07 11:04:02;;;;;;;0.50;0.30;;;;;;;25.77;63.56;100279.03;5075014;28;20449;-51
2021/07/07 11:06:39;;;;;;;0.50;0.30;;;;;;;26.01;64.40;100280.47;5075566;28;20523;-52
2021/07/07 11:09:09;;;;;;;0.50;0.30;;;;;;;26.20;63.80;100288.66;5074584;28;20870;-51
2021/07/07 11:11:36;;;;;;;0.50;0.30;;;;;;;26.25;63.26;100275.44;5074842;28;20470;-52
2021/07/07 11:14:27;;;;;;;0.50;0.30;;;;;;;25.93;61.72;100282.06;5074005;28;20503;-52
2021/07/07 11:16:57;;;;;;;1.23;1.13;;;;;;;26.63;62.87;100281.88;5070716;28;20437;-51
2021/07/07 11:19:40;;;;;;;0.50;0.30;;;;;;;26.46;60.60;100283.50;5074815;28;20442;-52
2021/07/07 11:22:08;;;;;;;0.50;0.30;;;;;;;26.57;60.94;100286.91;5074194;28;20472;-51
2021/07/07 11:24:35;;;;;;;0.40;0.30;;;;;;;26.07;61.79;100282.63;5074812;28;20495;-51
2021/07/07 11:27:04;;;;;;;0.50;0.30;;;;;;;26.07;62.06;100279.91;5061318;28;20842;-51